Rhapsody Of The Seas — C6UA2 — position and weather

sailwx.info

Track history (hours):
 
Tides and Currents Weather Stations Pressure Air Temp Water Temp Dewpoint Dewpoint Depression Visibility Wind Speed Wind Dir Waves Ship Positions

Rhapsody Of The Seas

Last reported at 2015-Jul-08 01:33 UTC. Time now 2015-Jul-08 02:15 UTC.
Position N 37°56' E 023°38'.

Type: Passenger vessel. MMSI: 311805000.

Date/timePositionNaut miles runAvg speedWind from/ knotsBaromVisibWave heightAir tempDewpointWater temp
2015-Jul-08 01:33N 37°56' E 023°38'6 6.3
2015-Jul-08 00:33N 37°50' E 023°39'1414.3
2015-Jul-07 23:33N 37°37' E 023°47'8211.4
2015-Jul-07 16:24N 36°34' E 024°51'1011.5
2015-Jul-07 15:33N 36°32' E 025°03'1211.7
2015-Jul-07 14:33N 36°29' E 025°17'8 7.5
2015-Jul-07 13:32N 36°25' E 025°25'0 0.1
2015-Jul-07 12:31N 36°25' E 025°25'0 0.0
2015-Jul-07 11:31N 36°25' E 025°25'0 0.1
2015-Jul-07 10:31N 36°25' E 025°25'0 0.0
2015-Jul-07 09:31N 36°25' E 025°25'0 0.0
2015-Jul-07 08:31N 36°25' E 025°25'0 0.1
2015-Jul-07 07:31N 36°25' E 025°25'0 0.0
2015-Jul-07 06:31N 36°25' E 025°25'0 0.1
2015-Jul-07 05:31N 36°25' E 025°25'1 1.5
2015-Jul-07 04:33N 36°26' E 025°24'9 8.5
2015-Jul-07 03:33N 36°28' E 025°14'10 9.4
2015-Jul-07 02:27N 36°26' E 025°01'35 6.9
2015-Jul-06 21:17N 37°01' E 024°51'6 8.8
2015-Jul-06 20:33N 37°07' E 024°53'9 9.0
2015-Jul-06 19:33N 37°16' E 024°56'9 9.4
2015-Jul-06 18:33N 37°24' E 025°02'8 8.2
2015-Jul-06 17:33N 37°29' E 025°11'7 6.6
2015-Jul-06 16:32N 37°28' E 025°19'0 0.0
2015-Jul-06 15:32N 37°28' E 025°19'0 0.0
2015-Jul-06 14:32N 37°28' E 025°19'0 0.0
2015-Jul-06 13:32N 37°28' E 025°19'0 0.0
2015-Jul-06 12:32N 37°28' E 025°19'0 0.0
2015-Jul-06 11:32N 37°28' E 025°19'0 0.0
2015-Jul-06 10:32N 37°28' E 025°19'0 0.0
2015-Jul-06 09:32N 37°28' E 025°19'0 0.0
2015-Jul-06 08:32N 37°28' E 025°19'0 0.0
2015-Jul-06 07:32N 37°28' E 025°19'0 0.0
2015-Jul-06 06:32N 37°28' E 025°19'0 0.1
2015-Jul-06 05:33N 37°28' E 025°19'8 7.5
2015-Jul-06 04:33N 37°35' E 025°22'2341.1
2015-Jul-06 04:00N 37°54' E 025°06'716.8 360 / 201016.0 1.021.821.422.0
2015-Jul-06 03:33N 37°50' E 025°14'  
2015-Jul-02 03:05N 40°60' E 028°60'5 9.9
2015-Jul-02 02:33N 40°55' E 028°57'25210.9
2015-Jul-01 03:21N 37°51' E 025°13'1013.1
2015-Jul-01 02:33N 37°42' E 025°19'1110.9
2015-Jul-01 01:34N 37°31' E 025°16'1313.2
2015-Jul-01 00:33N 37°23' E 025°03'1313.0
2015-Jun-30 23:33N 37°11' E 024°57'1313.2
2015-Jun-30 22:32N 36°58' E 024°52'4013.3
2015-Jun-30 19:33N 36°21' E 024°37'3014.2
2015-Jun-30 17:28N 35°52' E 024°26'47 2.3
2015-Jun-29 21:00N 36°36' E 024°48'23 9.6 290 / 91015.010.8 23.0 25.0
2015-Jun-29 18:33N 36°59' E 024°52'1111.1
2015-Jun-29 17:33N 37°10' E 024°56'1111.4
2015-Jun-29 16:33N 37°21' E 025°01'1110.8
2015-Jun-29 15:34N 37°29' E 025°10'8 7.5
2015-Jun-29 14:32N 37°28' E 025°19'0 0.0
2015-Jun-29 13:32N 37°28' E 025°19'0 0.0
2015-Jun-29 12:29N 37°28' E 025°19'0 0.0
2015-Jun-29 11:32N 37°28' E 025°19'0 0.0
2015-Jun-29 10:32N 37°28' E 025°19'0 0.0
2015-Jun-29 09:32N 37°28' E 025°19'0 0.0
2015-Jun-29 08:32N 37°28' E 025°19'0 0.0
2015-Jun-29 07:32N 37°28' E 025°19'0 0.0
2015-Jun-29 06:32N 37°28' E 025°19'0 0.0
2015-Jun-29 05:32N 37°28' E 025°19'0 0.0
2015-Jun-29 04:32N 37°28' E 025°19'0 0.3
2015-Jun-29 03:34N 37°27' E 025°19'6 6.5
2015-Jun-29 02:33N 37°29' E 025°11'8 8.3
2015-Jun-29 01:33N 37°31' E 025°01'8 7.8
2015-Jun-29 00:33N 37°33' E 024°51'55 7.6
2015-Jun-28 17:21N 37°40' E 023°43'7 8.7
2015-Jun-28 16:33N 37°46' E 023°38'8 8.2
2015-Jun-28 15:33N 37°54' E 023°37'3 2.6
2015-Jun-28 14:31N 37°56' E 023°38'0 0.0
2015-Jun-28 13:31N 37°56' E 023°38'0 0.0
2015-Jun-28 12:31N 37°56' E 023°38'0 0.0
2015-Jun-28 11:31N 37°56' E 023°38'0 0.0
2015-Jun-28 10:31N 37°56' E 023°38'0 0.0
2015-Jun-28 09:31N 37°56' E 023°38'0 0.0
2015-Jun-28 08:31N 37°56' E 023°38'0 0.0
2015-Jun-28 07:31N 37°56' E 023°38'0 0.0
2015-Jun-28 06:31N 37°56' E 023°38'0 0.0
2015-Jun-28 05:31N 37°56' E 023°38'0 0.0
2015-Jun-28 04:31N 37°56' E 023°38'0 0.1
2015-Jun-28 03:33N 37°56' E 023°38'6 6.1
2015-Jun-28 02:33N 37°50' E 023°39'  
Track history (hours):
 
Tides and Currents Weather Stations Pressure Air Temp Water Temp Dewpoint Dewpoint Depression Visibility Wind Speed Wind Dir Waves Ship Positions

Rhapsody Of The Seas

Last reported at 2015-Jul-08 01:33 UTC. Time now 2015-Jul-08 02:15 UTC.
Position N 37°56' E 023°38'.

Type: Passenger vessel. MMSI: 311805000.

Date/timePositionNaut miles runAvg speedWind from/ knotsBaromVisibWave heightAir tempDewpointWater temp
2015-Jul-08 01:33N 37°56' E 023°38'6 6.3
2015-Jul-08 00:33N 37°50' E 023°39'1414.3
2015-Jul-07 23:33N 37°37' E 023°47'8211.4
2015-Jul-07 16:24N 36°34' E 024°51'1011.5
2015-Jul-07 15:33N 36°32' E 025°03'1211.7
2015-Jul-07 14:33N 36°29' E 025°17'8 7.5
2015-Jul-07 13:32N 36°25' E 025°25'0 0.1
2015-Jul-07 12:31N 36°25' E 025°25'0 0.0
2015-Jul-07 11:31N 36°25' E 025°25'0 0.1
2015-Jul-07 10:31N 36°25' E 025°25'0 0.0
2015-Jul-07 09:31N 36°25' E 025°25'0 0.0
2015-Jul-07 08:31N 36°25' E 025°25'0 0.1
2015-Jul-07 07:31N 36°25' E 025°25'0 0.0
2015-Jul-07 06:31N 36°25' E 025°25'0 0.1
2015-Jul-07 05:31N 36°25' E 025°25'1 1.5
2015-Jul-07 04:33N 36°26' E 025°24'9 8.5
2015-Jul-07 03:33N 36°28' E 025°14'10 9.4
2015-Jul-07 02:27N 36°26' E 025°01'35 6.9
2015-Jul-06 21:17N 37°01' E 024°51'6 8.8
2015-Jul-06 20:33N 37°07' E 024°53'9 9.0
2015-Jul-06 19:33N 37°16' E 024°56'9 9.4
2015-Jul-06 18:33N 37°24' E 025°02'8 8.2
2015-Jul-06 17:33N 37°29' E 025°11'7 6.6
2015-Jul-06 16:32N 37°28' E 025°19'0 0.0
2015-Jul-06 15:32N 37°28' E 025°19'0 0.0
2015-Jul-06 14:32N 37°28' E 025°19'0 0.0
2015-Jul-06 13:32N 37°28' E 025°19'0 0.0
2015-Jul-06 12:32N 37°28' E 025°19'0 0.0
2015-Jul-06 11:32N 37°28' E 025°19'0 0.0
2015-Jul-06 10:32N 37°28' E 025°19'0 0.0
2015-Jul-06 09:32N 37°28' E 025°19'0 0.0
2015-Jul-06 08:32N 37°28' E 025°19'0 0.0
2015-Jul-06 07:32N 37°28' E 025°19'0 0.0
2015-Jul-06 06:32N 37°28' E 025°19'0 0.1
2015-Jul-06 05:33N 37°28' E 025°19'8 7.5
2015-Jul-06 04:33N 37°35' E 025°22'2341.1
2015-Jul-06 04:00N 37°54' E 025°06'716.8 360 / 201016.0 1.021.821.422.0
2015-Jul-06 03:33N 37°50' E 025°14'  
2015-Jul-02 03:05N 40°60' E 028°60'5 9.9
2015-Jul-02 02:33N 40°55' E 028°57'25210.9
2015-Jul-01 03:21N 37°51' E 025°13'1013.1
2015-Jul-01 02:33N 37°42' E 025°19'1110.9
2015-Jul-01 01:34N 37°31' E 025°16'1313.2
2015-Jul-01 00:33N 37°23' E 025°03'1313.0
2015-Jun-30 23:33N 37°11' E 024°57'1313.2
2015-Jun-30 22:32N 36°58' E 024°52'4013.3
2015-Jun-30 19:33N 36°21' E 024°37'3014.2
2015-Jun-30 17:28N 35°52' E 024°26'47 2.3
2015-Jun-29 21:00N 36°36' E 024°48'23 9.6 290 / 91015.010.8 23.0 25.0
2015-Jun-29 18:33N 36°59' E 024°52'1111.1
2015-Jun-29 17:33N 37°10' E 024°56'1111.4
2015-Jun-29 16:33N 37°21' E 025°01'1110.8
2015-Jun-29 15:34N 37°29' E 025°10'8 7.5
2015-Jun-29 14:32N 37°28' E 025°19'0 0.0
2015-Jun-29 13:32N 37°28' E 025°19'0 0.0
2015-Jun-29 12:29N 37°28' E 025°19'0 0.0
2015-Jun-29 11:32N 37°28' E 025°19'0 0.0
2015-Jun-29 10:32N 37°28' E 025°19'0 0.0
2015-Jun-29 09:32N 37°28' E 025°19'0 0.0
2015-Jun-29 08:32N 37°28' E 025°19'0 0.0
2015-Jun-29 07:32N 37°28' E 025°19'0 0.0
2015-Jun-29 06:32N 37°28' E 025°19'0 0.0
2015-Jun-29 05:32N 37°28' E 025°19'0 0.0
2015-Jun-29 04:32N 37°28' E 025°19'0 0.3
2015-Jun-29 03:34N 37°27' E 025°19'6 6.5
2015-Jun-29 02:33N 37°29' E 025°11'8 8.3
2015-Jun-29 01:33N 37°31' E 025°01'8 7.8
2015-Jun-29 00:33N 37°33' E 024°51'55 7.6
2015-Jun-28 17:21N 37°40' E 023°43'7 8.7
2015-Jun-28 16:33N 37°46' E 023°38'8 8.2
2015-Jun-28 15:33N 37°54' E 023°37'3 2.6
2015-Jun-28 14:31N 37°56' E 023°38'0 0.0
2015-Jun-28 13:31N 37°56' E 023°38'0 0.0
2015-Jun-28 12:31N 37°56' E 023°38'0 0.0
2015-Jun-28 11:31N 37°56' E 023°38'0 0.0
2015-Jun-28 10:31N 37°56' E 023°38'0 0.0
2015-Jun-28 09:31N 37°56' E 023°38'0 0.0
2015-Jun-28 08:31N 37°56' E 023°38'0 0.0
2015-Jun-28 07:31N 37°56' E 023°38'0 0.0
2015-Jun-28 06:31N 37°56' E 023°38'0 0.0
2015-Jun-28 05:31N 37°56' E 023°38'0 0.0
2015-Jun-28 04:31N 37°56' E 023°38'0 0.1
2015-Jun-28 03:33N 37°56' E 023°38'6 6.1
2015-Jun-28 02:33N 37°50' E 023°39'  

Dump ship's entire track history